Time;durP1;ratioP1;P1;durP2;ratioP2;P2;SDS_P1;SDS_P2;PMS_P1;PMS_P2;Temp;Humidity;BMP_temperature;BMP_pressure;BME280_temperature;BME280_humidity;BME280_pressure;Samples;Min_cycle;Max_cycle;Signal;HPM_P1;HPM_P2
2023/12/12 00:01:24;;;;;;;;;22.00;21.50;;;;;21.63;29.10;100827.02;246122;1180;74311;-62
2023/12/12 00:06:30;;;;;;;;;25.50;25.50;;;;;21.63;29.03;100826.34;246187;1180;72740;-61
2023/12/12 00:11:33;;;;;;;;;24.50;24.50;;;;;21.63;29.14;100818.73;246153;1180;73583;-61
2023/12/12 00:16:36;;;;;;;;;26.00;23.67;;;;;21.62;29.07;100801.80;246154;1178;57560;-60
2023/12/12 00:21:39;;;;;;;;;23.00;23.00;;;;;21.62;29.11;100801.60;246166;1180;73523;-61
2023/12/12 00:26:42;;;;;;;;;21.50;21.50;;;;;21.62;29.14;100800.38;246162;1177;57550;-61
2023/12/12 00:31:45;;;;;;;;;25.25;22.50;;;;;21.61;29.20;100803.71;246167;1177;57486;-61
2023/12/12 00:36:48;;;;;;;;;25.33;23.00;;;;;21.61;29.18;100805.95;246157;1176;57536;-61
2023/12/12 00:41:52;;;;;;;;;22.00;21.75;;;;;21.60;29.11;100803.48;246172;1177;57524;-62
2023/12/12 00:46:55;;;;;;;;;23.25;23.25;;;;;21.61;29.06;100809.98;246194;1175;73008;-61
2023/12/12 00:51:58;;;;;;;;;19.25;18.75;;;;;21.60;29.08;100811.14;246144;1177;57492;-61
2023/12/12 00:57:02;;;;;;;;;22.67;21.67;;;;;21.59;29.23;100807.84;246153;1176;73488;-62
2023/12/12 01:02:05;;;;;;;;;25.00;25.00;;;;;21.59;29.16;100805.83;246138;1180;72748;-62
2023/12/12 01:07:08;;;;;;;;;22.50;22.50;;;;;21.59;29.12;100786.83;246151;1177;57512;-61
2023/12/12 01:12:11;;;;;;;;;20.00;19.75;;;;;21.58;29.24;100783.81;246128;1180;57458;-61
2023/12/12 01:17:14;;;;;;;;;24.50;22.25;;;;;21.58;29.17;100767.73;246186;1176;57451;-61
2023/12/12 01:22:17;;;;;;;;;24.00;22.50;;;;;21.57;29.17;100748.21;246175;1176;57525;-61
2023/12/12 01:27:21;;;;;;;;;20.25;20.25;;;;;21.57;29.36;100749.17;246177;1180;73517;-61
2023/12/12 01:32:24;;;;;;;;;25.50;25.50;;;;;21.56;29.37;100748.64;246197;1180;73542;-61
2023/12/12 01:37:27;;;;;;;;;22.67;22.67;;;;;21.55;29.31;100748.30;246118;1180;74079;-61
2023/12/12 01:42:31;;;;;;;;;20.00;20.00;;;;;21.56;29.26;100748.42;246121;1180;73583;-60
2023/12/12 01:47:34;;;;;;;;;21.67;20.67;;;;;21.55;29.31;100750.48;246135;1180;72831;-62
2023/12/12 01:52:37;;;;;;;;;24.25;22.25;;;;;21.55;29.22;100745.84;246150;1180;73880;-62
2023/12/12 01:57:41;;;;;;;;;25.50;22.75;;;;;21.55;29.23;100737.52;246034;1180;73279;-62
2023/12/12 02:02:44;;;;;;;;;24.00;21.50;;;;;21.54;29.29;100720.05;246157;1180;72725;-60
2023/12/12 02:07:49;;;;;;;;;23.00;20.00;;;;;21.53;29.33;100716.88;246038;1177;57439;-61
2023/12/12 02:12:52;;;;;;;;;24.25;21.75;;;;;21.53;29.27;100712.90;246012;1180;73814;-61
2023/12/12 02:17:56;;;;;;;;;24.25;21.75;;;;;21.53;29.27;100703.73;246113;1180;72280;-62
2023/12/12 02:22:59;;;;;;;;;23.33;23.00;;;;;21.52;29.30;100705.57;246152;1176;73568;-61
2023/12/12 02:28:03;;;;;;;;;24.25;21.25;;;;;21.52;29.38;100702.55;246122;1178;58324;-61
2023/12/12 02:33:06;;;;;;;;;23.00;23.00;;;;;21.51;29.31;100702.80;246117;1180;73796;-61
2023/12/12 02:38:09;;;;;;;;;22.33;22.33;;;;;21.52;29.25;100710.92;246054;1180;73922;-61
2023/12/12 02:43:12;;;;;;;;;23.67;23.33;;;;;21.51;29.22;100711.39;246135;1180;73018;-60
2023/12/12 02:48:16;;;;;;;;;22.00;21.00;;;;;21.51;29.15;100708.03;246137;1180;58310;-61
2023/12/12 02:53:19;;;;;;;;;25.25;24.00;;;;;21.51;29.13;100714.86;246101;1180;72763;-61
2023/12/12 02:58:22;;;;;;;;;26.00;24.33;;;;;21.50;29.26;100721.58;246123;1177;58308;-61
2023/12/12 03:03:25;;;;;;;;;24.50;23.25;;;;;21.50;29.05;100728.44;246098;1180;73491;-61
2023/12/12 03:08:28;;;;;;;;;20.25;20.25;;;;;21.49;29.16;100729.83;246106;1180;58392;-60
2023/12/12 03:13:35;;;;;;;;;26.75;23.25;;;;;21.49;29.16;100724.77;246136;1176;74016;-61
2023/12/12 03:18:38;;;;;;;;;25.75;24.50;;;;;21.48;29.30;100720.51;246115;1180;72815;-60
2023/12/12 03:23:41;;;;;;;;;22.00;20.75;;;;;21.47;29.21;100719.19;246160;1180;58450;-61
2023/12/12 03:28:44;;;;;;;;;25.50;22.75;;;;;21.47;29.20;100716.52;246186;1177;58237;-61
2023/12/12 03:33:47;;;;;;;;;22.67;22.67;;;;;21.46;29.43;100711.95;246145;1176;58148;-62
2023/12/12 03:38:50;;;;;;;;;23.33;23.33;;;;;21.46;29.43;100705.80;246146;1177;58228;-61
2023/12/12 03:43:53;;;;;;;;;22.00;21.00;;;;;21.46;29.21;100710.70;246144;1180;58499;-63
2023/12/12 03:48:56;;;;;;;;;22.00;22.00;;;;;21.46;29.20;100724.52;246133;1177;58147;-61
2023/12/12 03:53:59;;;;;;;;;20.00;19.67;;;;;21.45;29.35;100732.98;246153;1180;58240;-61
2023/12/12 03:59:02;;;;;;;;;21.67;21.67;;;;;21.45;29.36;100734.14;246184;1175;58349;-61
2023/12/12 04:04:05;;;;;;;;;21.50;21.50;;;;;21.45;29.26;100729.33;246211;1176;58409;-61
2023/12/12 04:09:09;;;;;;;;;22.75;20.50;;;;;21.44;29.34;100727.29;246174;1177;58316;-62
2023/12/12 04:14:12;;;;;;;;;23.50;23.00;;;;;21.43;29.25;100719.62;246158;1179;58252;-60
2023/12/12 04:19:15;;;;;;;;;20.50;20.00;;;;;21.44;29.17;100725.02;246162;1177;59381;-60
2023/12/12 04:24:18;;;;;;;;;23.00;23.00;;;;;21.51;28.93;100727.56;246151;1176;58231;-62
2023/12/12 04:29:21;;;;;;;;;22.33;21.67;;;;;21.61;28.77;100723.55;246183;1176;58278;-61
2023/12/12 04:34:24;;;;;;;;;21.67;21.67;;;;;21.76;28.39;100731.03;246147;1180;58334;-60
2023/12/12 04:39:27;;;;;;;;;25.67;24.33;;;;;21.96;28.05;100733.05;246138;1181;58258;-62
2023/12/12 04:44:30;;;;;;;;;28.75;26.00;;;;;22.16;27.90;100734.23;246181;1177;73887;-61
2023/12/12 04:49:34;;;;;;;;;24.75;23.00;;;;;22.35;27.60;100726.48;246158;1179;58234;-60
2023/12/12 04:54:37;;;;;;;;;28.75;28.25;;;;;22.51;27.26;100730.52;246197;1175;73107;-62
2023/12/12 04:59:40;;;;;;;;;25.75;24.25;;;;;22.63;27.08;100731.44;246150;1177;58372;-60
2023/12/12 05:04:43;;;;;;;;;25.00;23.75;;;;;22.73;26.77;100728.44;246166;1177;58700;-63
2023/12/12 05:09:46;;;;;;;;;27.00;26.00;;;;;22.81;26.66;100720.86;246169;1180;58281;-62
2023/12/12 05:14:49;;;;;;;;;29.33;28.00;;;;;22.88;26.55;100715.70;246150;1177;58698;-62
2023/12/12 05:19:52;;;;;;;;;33.00;32.00;;;;;22.93;26.26;100708.63;246154;1176;58283;-61
2023/12/12 05:24:56;;;;;;;;;30.33;29.67;;;;;22.97;26.17;100709.14;246133;1180;74330;-61
2023/12/12 05:30:00;;;;;;;;;29.50;27.00;;;;;23.01;26.18;100710.95;246040;1180;73118;-62
2023/12/12 05:35:03;;;;;;;;;36.33;32.33;;;;;23.03;26.01;100724.56;246039;1177;58352;-61
2023/12/12 05:40:06;;;;;;;;;34.25;29.25;;;;;23.05;26.39;100720.69;245935;1180;72708;-60
2023/12/12 05:45:10;;;;;;;;;34.00;32.00;;;;;23.09;27.95;100711.13;245816;1177;73284;-58
2023/12/12 05:50:13;;;;;;;;;36.50;33.75;;;;;23.15;27.61;100701.04;245865;1179;72931;-60
2023/12/12 05:55:16;;;;;;;;;35.00;31.00;;;;;23.24;28.69;100703.93;245842;1177;58322;-63
2023/12/12 06:00:20;;;;;;;;;44.50;37.50;;;;;23.31;29.14;100709.98;245902;1180;73123;-60
2023/12/12 06:05:23;;;;;;;;;33.25;31.75;;;;;23.27;30.73;100701.64;245362;1177;73838;-61
2023/12/12 06:10:27;;;;;;;;;34.75;31.00;;;;;23.54;30.99;100701.59;245776;1176;73865;-61
2023/12/12 06:15:30;;;;;;;;;39.50;34.50;;;;;23.92;30.93;100709.10;245876;1179;73779;-59
2023/12/12 06:20:35;;;;;;;;;40.67;34.33;;;;;24.24;30.75;100707.83;245827;1177;58315;-66
2023/12/12 06:25:38;;;;;;;;;37.75;32.75;;;;;24.43;30.14;100697.91;245780;1177;73702;-60
2023/12/12 06:30:41;;;;;;;;;38.50;34.75;;;;;24.55;29.29;100692.63;245809;1180;73912;-60
2023/12/12 06:35:45;;;;;;;;;48.25;38.25;;;;;24.63;28.77;100695.08;245852;1180;74504;-61
2023/12/12 06:40:48;;;;;;;;;40.50;36.25;;;;;24.76;28.47;100698.19;245890;1175;73677;-60
2023/12/12 06:45:52;;;;;;;;;47.50;39.00;;;;;24.89;28.10;100694.13;245898;1176;72136;-60
2023/12/12 06:50:55;;;;;;;;;41.75;34.00;;;;;25.02;28.52;100700.14;245821;1176;73799;-58
2023/12/12 06:55:59;;;;;;;;;44.75;34.00;;;;;25.18;28.98;100712.14;245966;1176;74440;-60
2023/12/12 07:01:03;;;;;;;;;34.75;32.50;;;;;25.23;29.51;100713.23;245977;1179;74117;-61
2023/12/12 07:06:09;;;;;;;;;36.00;31.25;;;;;25.27;30.15;100709.33;245961;1183;73509;-61
2023/12/12 07:11:15;;;;;;;;;35.00;31.00;;;;;25.39;30.34;100715.99;245971;1179;73125;-63
2023/12/12 07:16:19;;;;;;;;;28.75;26.50;;;;;25.56;31.34;100707.41;245967;1177;72923;-66
2023/12/12 07:21:24;;;;;;;;;31.25;26.50;;;;;25.74;31.27;100705.13;245892;1176;74152;-64
2023/12/12 07:26:27;;;;;;;;;23.50;22.75;;;;;25.87;31.38;100701.67;245974;1177;72691;-66
2023/12/12 07:31:30;;;;;;;;;26.75;26.75;;;;;25.99;31.89;100690.45;245981;1179;58482;-64
2023/12/12 07:36:34;;;;;;;;;36.00;34.00;;;;;26.05;31.19;100683.98;245944;1175;58452;-64
2023/12/12 07:41:37;;;;;;;;;34.00;30.25;;;;;25.99;29.58;100684.16;246019;1179;73812;-65
2023/12/12 07:46:41;;;;;;;;;32.25;30.00;;;;;25.93;28.71;100693.20;246020;1176;58490;-66
2023/12/12 07:51:44;;;;;;;;;32.25;31.25;;;;;25.91;28.46;100692.98;245884;1179;73519;-63
2023/12/12 07:56:47;;;;;;;;;40.33;33.67;;;;;25.96;28.86;100694.73;245833;1179;72933;-66
2023/12/12 08:01:50;;;;;;;;;40.50;33.00;;;;;25.90;28.68;100696.96;245876;1177;58463;-65
2023/12/12 08:06:54;;;;;;;;;31.50;28.75;;;;;25.84;30.00;100703.63;245576;1177;74123;-64
2023/12/12 08:11:58;;;;;;;;;35.75;32.50;;;;;25.96;30.06;100710.12;245941;1177;73675;-66
2023/12/12 08:17:01;;;;;;;;;34.25;31.75;;;;;26.00;29.08;100710.04;245858;1186;73270;-68
2023/12/12 08:22:04;;;;;;;;;35.00;32.00;;;;;26.01;28.73;100709.02;245919;1176;59029;-64
2023/12/12 08:27:07;;;;;;;;;32.50;30.00;;;;;26.06;29.29;100716.07;245888;1179;72887;-63
2023/12/12 08:32:11;;;;;;;;;37.00;31.75;;;;;26.17;29.42;100715.69;245976;1179;72330;-61
2023/12/12 08:37:16;;;;;;;;;39.25;33.00;;;;;26.16;28.80;100713.83;245921;1180;73264;-63
2023/12/12 08:42:20;;;;;;;;;39.50;31.25;;;;;26.13;28.70;100706.95;245859;1180;72985;-63
2023/12/12 08:47:23;;;;;;;;;34.50;31.25;;;;;26.09;28.28;100706.72;245951;1179;73903;-63
2023/12/12 08:52:34;;;;;;;;;38.00;32.25;;;;;26.05;28.44;100704.20;245850;1175;72829;-64
2023/12/12 08:57:40;;;;;;;;;32.00;30.00;;;;;26.11;28.94;100701.75;245803;1179;74644;-65
2023/12/12 09:02:43;;;;;;;;;31.33;30.00;;;;;26.15;29.39;100705.18;245892;1176;73379;-63
2023/12/12 09:07:46;;;;;;;;;34.00;32.75;;;;;25.89;29.41;100713.11;245999;1177;73196;-63
2023/12/12 09:12:49;;;;;;;;;34.75;30.25;;;;;25.74;29.54;100714.10;246037;1180;58376;-63
2023/12/12 09:17:52;;;;;;;;;38.75;32.25;;;;;25.60;29.37;100708.59;245970;1177;73421;-63
2023/12/12 09:23:16;;;;;;;;;36.50;32.75;;;;;25.42;29.22;100706.34;245946;1177;73934;-63
2023/12/12 09:28:19;;;;;;;;;32.75;31.25;;;;;25.30;28.94;100705.02;246056;1177;74498;-63
2023/12/12 09:33:23;;;;;;;;;36.00;31.50;;;;;25.19;28.74;100705.31;246053;1179;73529;-63
2023/12/12 09:38:26;;;;;;;;;45.33;35.67;;;;;25.12;28.37;100707.08;245948;1176;72769;-63
2023/12/12 09:43:31;;;;;;;;;40.50;32.00;;;;;25.02;27.96;100699.80;245962;1179;73015;-63
2023/12/12 09:48:35;;;;;;;;;36.00;32.33;;;;;24.96;27.88;100692.75;245977;1176;73843;-63
2023/12/12 09:53:46;;;;;;;;;36.25;33.50;;;;;24.92;27.66;100686.59;245921;1176;72807;-62
2023/12/12 09:58:49;;;;;;;;;32.50;31.25;;;;;24.89;27.53;100686.48;245724;1176;74829;-62
2023/12/12 10:03:54;;;;;;;;;36.67;32.33;;;;;24.85;27.28;100681.35;245835;1180;73670;-61
2023/12/12 10:08:57;;;;;;;;;36.00;31.50;;;;;24.83;27.26;100680.15;245965;1180;73915;-63
2023/12/12 10:14:01;;;;;;;;;34.50;31.50;;;;;24.82;27.00;100691.94;245983;1176;72641;-62
2023/12/12 10:19:04;;;;;;;;;35.75;33.25;;;;;24.82;27.00;100691.93;245950;1180;74483;-62
2023/12/12 10:24:07;;;;;;;;;36.25;32.75;;;;;24.76;27.02;100679.09;245921;1176;73394;-63
2023/12/12 10:29:10;;;;;;;;;43.67;34.00;;;;;24.71;27.17;100681.05;245428;1180;73658;-63
2023/12/12 10:34:13;;;;;;;;;38.00;34.00;;;;;24.72;26.91;100684.41;245940;1177;58261;-63
2023/12/12 10:39:17;;;;;;;;;34.50;31.75;;;;;24.76;26.97;100693.68;245789;1177;72685;-62
2023/12/12 10:44:21;;;;;;;;;40.50;35.25;;;;;24.80;26.93;100696.19;245776;1180;72972;-62
2023/12/12 10:49:28;;;;;;;;;32.50;29.50;;;;;24.82;26.95;100697.02;245802;1180;72963;-62
2023/12/12 10:54:35;;;;;;;;;34.25;31.00;;;;;24.83;26.99;100691.37;246001;1180;74645;-62
2023/12/12 10:59:40;;;;;;;;;36.50;32.25;;;;;24.85;26.93;100682.55;245779;1185;73645;-62
2023/12/12 11:05:03;;;;;;;;;33.00;29.33;;;;;24.86;27.00;100680.16;245756;1176;72986;-62
2023/12/12 11:10:08;;;;;;;;;29.75;28.25;;;;;24.88;27.00;100676.38;245791;1177;74244;-62
2023/12/12 11:15:13;;;;;;;;;28.25;28.00;;;;;24.90;27.07;100671.73;246094;1176;74177;-63
2023/12/12 11:20:17;;;;;;;;;30.00;27.75;;;;;24.92;27.07;100668.60;246070;1177;72840;-62
2023/12/12 11:25:21;;;;;;;;;32.00;29.00;;;;;24.96;27.00;100664.05;246149;1177;73079;-62
2023/12/12 11:30:45;;;;;;;;;30.75;30.50;;;;;25.01;26.99;100659.07;245849;1180;72879;-62
2023/12/12 11:35:49;;;;;;;;;27.50;26.75;;;;;25.09;26.83;100659.54;245927;1180;74156;-61
2023/12/12 11:41:14;;;;;;;;;28.00;26.75;;;;;25.13;26.89;100664.52;245966;1177;58381;-61
2023/12/12 11:46:21;;;;;;;;;27.75;25.75;;;;;25.16;26.98;100663.11;245944;1180;74375;-61
2023/12/12 11:51:33;;;;;;;;;34.25;30.25;;;;;25.20;26.81;100666.59;245908;1177;73238;-62
2023/12/12 11:56:36;;;;;;;;;22.50;22.50;;;;;25.25;26.83;100660.46;245807;1175;72374;-62
2023/12/12 12:01:39;;;;;;;;;27.75;27.50;;;;;25.29;26.89;100660.27;245927;1180;72898;-62
2023/12/12 12:06:43;;;;;;;;;28.75;27.25;;;;;25.30;26.92;100649.84;245952;1175;73584;-61
2023/12/12 12:11:48;;;;;;;;;27.50;27.00;;;;;25.35;26.89;100628.27;246001;1183;72910;-62
2023/12/12 12:16:53;;;;;;;;;24.25;24.00;;;;;25.36;26.85;100633.36;245996;1180;73527;-62
2023/12/12 12:22:08;;;;;;;;;25.00;23.25;;;;;25.31;27.06;100640.21;246032;1180;73409;-62
2023/12/12 12:27:11;;;;;;;;;26.50;26.00;;;;;25.24;27.19;100650.96;246012;1177;74235;-62
2023/12/12 12:32:16;;;;;;;;;32.50;28.50;;;;;25.13;27.46;100662.16;245985;1177;73316;-62
2023/12/12 12:37:32;;;;;;;;;23.75;23.75;;;;;25.01;27.51;100659.50;246042;1179;72652;-62
2023/12/12 12:42:37;;;;;;;;;25.00;25.00;;;;;24.89;27.84;100658.40;246031;1178;74039;-61
2023/12/12 12:47:40;;;;;;;;;22.50;22.00;;;;;24.80;27.89;100652.13;246005;1177;74259;-62
2023/12/12 12:52:44;;;;;;;;;24.50;24.50;;;;;24.72;28.04;100658.15;246034;1180;58247;-62
2023/12/12 12:57:47;;;;;;;;;20.50;20.50;;;;;24.64;28.15;100668.67;246080;1180;73775;-62
2023/12/12 13:02:51;;;;;;;;;25.67;24.00;;;;;24.55;28.31;100675.52;246050;1175;58383;-62
2023/12/12 13:07:54;;;;;;;;;29.00;26.25;;;;;24.44;28.68;100666.92;246087;1177;58261;-62
2023/12/12 13:12:57;;;;;;;;;33.00;31.33;;;;;24.31;29.47;100666.55;245970;1177;58402;-62
2023/12/12 13:18:00;;;;;;;;;39.33;34.67;;;;;24.19;33.40;100681.76;246189;1177;58531;-62
2023/12/12 13:23:03;;;;;;;;;47.50;36.50;;;;;24.04;35.80;100684.61;246253;1175;58460;-62
2023/12/12 13:28:07;;;;;;;;;38.00;32.67;;;;;23.88;39.01;100692.44;246182;1179;59200;-62
2023/12/12 13:33:11;;;;;;;;;38.00;34.00;;;;;23.68;39.59;100709.77;246227;1179;73245;-62
2023/12/12 13:38:15;;;;;;;;;43.33;34.00;;;;;23.49;39.84;100716.67;246234;1180;74066;-63
2023/12/12 13:43:18;;;;;;;;;40.33;36.00;;;;;23.33;38.88;100726.72;246163;1175;58631;-62
2023/12/12 13:48:21;;;;;;;;;40.67;35.00;;;;;23.20;37.40;100732.26;246121;1180;73408;-63
2023/12/12 13:53:25;;;;;;;;;44.50;37.00;;;;;23.08;36.13;100727.92;246070;1179;73637;-63
2023/12/12 13:58:28;;;;;;;;;42.25;37.75;;;;;22.97;34.98;100732.00;246127;1178;58495;-63
2023/12/12 14:03:31;;;;;;;;;40.33;35.33;;;;;22.88;34.50;100730.22;246134;1179;73468;-63
2023/12/12 14:08:35;;;;;;;;;41.50;35.75;;;;;22.81;34.09;100739.04;246163;1179;73502;-64
2023/12/12 14:13:38;;;;;;;;;37.25;34.25;;;;;22.75;33.82;100740.66;246137;1176;58325;-64
2023/12/12 14:18:41;;;;;;;;;43.25;38.25;;;;;22.70;33.38;100737.60;246135;1176;58305;-63
2023/12/12 14:23:44;;;;;;;;;43.33;36.67;;;;;22.65;33.39;100730.76;246146;1176;58262;-64
2023/12/12 14:28:49;;;;;;;;;40.75;36.00;;;;;22.60;33.11;100727.69;246160;1177;58272;-64
2023/12/12 14:33:53;;;;;;;;;41.25;37.00;;;;;22.57;33.18;100729.19;246118;1179;72971;-63
2023/12/12 14:39:00;;;;;;;;;43.00;36.75;;;;;22.57;33.09;100733.20;246124;1179;72249;-64
2023/12/12 14:44:04;;;;;;;;;37.75;35.25;;;;;22.59;33.19;100725.90;246115;1188;72512;-63
2023/12/12 14:49:07;;;;;;;;;38.50;35.75;;;;;22.61;32.86;100726.84;246108;1180;73485;-63
2023/12/12 14:54:10;;;;;;;;;36.25;33.25;;;;;22.63;32.79;100728.76;246159;1180;73869;-63
2023/12/12 14:59:13;;;;;;;;;44.50;35.75;;;;;22.64;32.85;100740.02;246130;1180;73396;-63
2023/12/12 15:04:17;;;;;;;;;41.50;35.50;;;;;22.65;32.58;100743.38;246141;1180;72772;-63
2023/12/12 15:09:20;;;;;;;;;38.00;36.00;;;;;22.65;32.54;100739.31;246130;1180;73430;-63
2023/12/12 15:14:27;;;;;;;;;33.25;32.50;;;;;22.65;32.52;100736.58;246151;1180;72476;-63
2023/12/12 15:19:30;;;;;;;;;38.00;33.25;;;;;22.65;32.38;100737.21;246143;1180;58430;-63
2023/12/12 15:24:33;;;;;;;;;36.50;34.00;;;;;22.63;32.43;100736.30;246116;1177;72607;-63
2023/12/12 15:29:37;;;;;;;;;38.00;34.33;;;;;22.63;32.38;100737.81;246162;1180;58312;-63
2023/12/12 15:34:40;;;;;;;;;36.33;33.33;;;;;22.62;32.35;100739.98;246113;1177;73463;-63
2023/12/12 15:39:43;;;;;;;;;35.75;32.50;;;;;22.62;32.16;100740.23;246133;1180;58411;-63
2023/12/12 15:44:46;;;;;;;;;38.25;34.25;;;;;22.61;32.26;100742.27;246132;1180;58284;-63
2023/12/12 15:49:49;;;;;;;;;35.00;32.67;;;;;22.60;32.29;100743.81;246122;1180;58294;-63
2023/12/12 15:54:52;;;;;;;;;36.33;32.00;;;;;22.61;32.34;100742.36;246158;1180;58330;-63
2023/12/12 15:59:55;;;;;;;;;39.50;34.50;;;;;22.62;32.15;100751.23;246164;1176;58330;-63
2023/12/12 16:04:59;;;;;;;;;35.50;32.00;;;;;22.63;32.46;100749.42;246260;1180;58291;-63
2023/12/12 16:10:06;;;;;;;;;38.67;34.00;;;;;22.64;32.23;100751.14;246180;1180;74222;-63
2023/12/12 16:15:10;;;;;;;;;40.50;37.25;;;;;22.64;32.20;100749.52;246172;1180;72646;-62
2023/12/12 16:20:13;;;;;;;;;28.33;28.33;;;;;22.64;32.13;100750.72;246025;1180;74046;-62
2023/12/12 16:25:17;;;;;;;;;32.00;30.75;;;;;22.64;32.28;100753.00;246134;1180;73388;-62
2023/12/12 16:30:20;;;;;;;;;31.00;27.75;;;;;22.61;32.29;100750.25;246156;1177;74442;-62
2023/12/12 16:35:26;;;;;;;;;33.25;30.50;;;;;22.59;32.11;100750.50;246217;1176;74032;-62
2023/12/12 16:40:30;;;;;;;;;34.00;28.00;;;;;22.61;32.16;100752.13;244782;1177;73310;-62
2023/12/12 16:45:33;;;;;;;;;33.75;28.50;;;;;22.53;32.36;100760.92;246233;1180;72956;-63
2023/12/12 16:50:36;;;;;;;;;35.67;33.33;;;;;22.54;32.17;100764.92;246227;1176;58298;-63
2023/12/12 16:55:40;;;;;;;;;34.75;31.75;;;;;22.57;32.22;100763.10;246219;1176;73191;-63
2023/12/12 17:00:43;;;;;;;;;36.00;34.25;;;;;22.58;32.19;100752.20;246244;1180;73135;-63
2023/12/12 17:05:46;;;;;;;;;33.75;32.25;;;;;22.59;32.19;100741.75;246217;1176;58131;-63
2023/12/12 17:10:49;;;;;;;;;31.75;30.25;;;;;22.58;32.39;100737.05;246250;1185;58372;-63
2023/12/12 17:15:56;;;;;;;;;32.33;31.33;;;;;22.58;32.36;100752.15;246193;1180;72720;-63
2023/12/12 17:20:59;;;;;;;;;33.50;30.75;;;;;22.58;32.18;100753.20;246203;1180;73328;-63
2023/12/12 17:26:02;;;;;;;;;29.75;29.75;;;;;22.58;32.23;100756.14;246190;1175;58352;-63
2023/12/12 17:31:05;;;;;;;;;36.67;34.00;;;;;22.58;32.23;100753.62;246223;1180;58301;-62
2023/12/12 17:36:09;;;;;;;;;33.50;31.75;;;;;22.57;32.12;100742.31;246205;1188;73370;-63
2023/12/12 17:41:15;;;;;;;;;36.25;31.25;;;;;22.57;32.28;100745.80;246263;1180;71932;-63
2023/12/12 17:46:19;;;;;;;;;30.67;30.00;;;;;22.57;32.26;100747.68;246233;1180;73475;-64
2023/12/12 17:51:22;;;;;;;;;34.25;30.50;;;;;22.56;32.16;100733.92;246231;1180;58308;-63
2023/12/12 17:56:25;;;;;;;;;28.50;27.50;;;;;22.55;32.29;100739.71;246228;1177;58403;-62
2023/12/12 18:01:37;;;;;;;;;30.00;30.00;;;;;22.55;32.20;100752.08;246243;1176;58286;-63
2023/12/12 18:06:40;;;;;;;;;30.25;30.25;;;;;22.54;32.29;100754.06;246186;1180;74572;-63
2023/12/12 18:11:43;;;;;;;;;30.25;29.50;;;;;22.54;32.17;100748.98;246141;1176;73590;-62
2023/12/12 18:16:47;;;;;;;;;28.25;28.25;;;;;22.53;32.36;100747.66;246201;1175;58299;-63
2023/12/12 18:21:50;;;;;;;;;32.50;30.25;;;;;22.53;32.12;100743.20;246153;1180;58330;-63
2023/12/12 18:26:54;;;;;;;;;33.00;30.75;;;;;22.53;32.27;100733.49;246146;1177;58453;-63
2023/12/12 18:31:58;;;;;;;;;28.50;28.50;;;;;22.52;32.21;100716.69;246156;1180;73912;-63
2023/12/12 18:37:02;;;;;;;;;32.00;30.00;;;;;22.52;32.25;100714.97;246101;1180;72971;-63
2023/12/12 18:42:06;;;;;;;;;32.75;29.50;;;;;22.52;32.41;100731.48;246148;1180;72766;-63
2023/12/12 18:47:09;;;;;;;;;32.00;30.75;;;;;22.51;32.18;100736.14;246125;1180;73906;-63
2023/12/12 18:52:12;;;;;;;;;36.50;32.00;;;;;22.50;32.25;100738.23;246169;1177;58258;-63
2023/12/12 18:57:15;;;;;;;;;33.25;32.00;;;;;22.50;32.22;100746.87;246148;1175;73405;-63
2023/12/12 19:02:18;;;;;;;;;33.00;31.67;;;;;22.49;32.31;100756.95;246170;1180;58536;-63
2023/12/12 19:07:21;;;;;;;;;36.75;33.00;;;;;22.48;32.26;100766.23;246108;1180;58422;-63
2023/12/12 19:12:24;;;;;;;;;28.75;28.75;;;;;22.47;32.21;100769.75;246147;1180;72944;-63
2023/12/12 19:17:28;;;;;;;;;37.50;33.00;;;;;22.46;32.06;100775.70;246179;1180;58287;-63
2023/12/12 19:22:32;;;;;;;;;33.25;31.75;;;;;22.45;32.31;100780.57;246152;1180;74552;-62
2023/12/12 19:27:35;;;;;;;;;29.25;29.25;;;;;22.45;32.19;100782.80;246161;1180;73026;-63
2023/12/12 19:32:40;;;;;;;;;27.75;27.75;;;;;22.44;32.30;100779.45;246163;1176;73283;-63
2023/12/12 19:37:43;;;;;;;;;31.75;30.75;;;;;22.43;32.22;100795.02;246130;1180;73276;-63
2023/12/12 19:42:47;;;;;;;;;30.00;28.00;;;;;22.42;32.11;100805.72;246159;1176;73768;-62
2023/12/12 19:47:51;;;;;;;;;30.75;30.75;;;;;22.42;32.21;100802.48;246198;1177;73376;-63
2023/12/12 19:52:54;;;;;;;;;31.25;29.25;;;;;22.41;32.29;100798.02;246163;1177;73927;-63
2023/12/12 19:57:57;;;;;;;;;25.50;25.00;;;;;22.40;32.13;100807.09;246131;1177;58717;-63
2023/12/12 20:03:00;;;;;;;;;29.75;28.25;;;;;22.39;32.17;100820.17;246136;1177;58332;-63
2023/12/12 20:08:03;;;;;;;;;30.25;29.50;;;;;22.38;32.08;100826.89;246130;1180;58324;-63
2023/12/12 20:13:06;;;;;;;;;34.00;30.33;;;;;22.38;32.11;100825.89;246169;1180;73973;-63
2023/12/12 20:18:10;;;;;;;;;34.00;32.25;;;;;22.36;32.06;100816.14;246144;1175;73153;-63
2023/12/12 20:23:13;;;;;;;;;30.50;29.75;;;;;22.37;32.20;100818.65;246154;1180;58300;-62
2023/12/12 20:28:16;;;;;;;;;31.00;30.33;;;;;22.36;32.11;100813.66;246136;1180;72919;-63
2023/12/12 20:33:20;;;;;;;;;30.25;30.00;;;;;22.35;32.02;100824.81;246139;1180;72588;-63
2023/12/12 20:38:23;;;;;;;;;29.67;29.33;;;;;22.35;32.15;100829.16;246147;1180;58230;-62
2023/12/12 20:43:26;;;;;;;;;33.67;31.67;;;;;22.34;32.09;100832.95;246155;1176;58253;-63
2023/12/12 20:48:29;;;;;;;;;29.00;27.67;;;;;22.34;32.23;100847.58;246122;1180;58327;-63
2023/12/12 20:53:32;;;;;;;;;30.50;29.75;;;;;22.33;32.18;100850.30;246155;1176;58317;-63
2023/12/12 20:58:36;;;;;;;;;36.25;30.50;;;;;22.32;32.10;100852.13;246148;1180;73984;-63
2023/12/12 21:03:39;;;;;;;;;34.50;31.25;;;;;22.32;32.12;100852.36;246188;1180;73430;-63
2023/12/12 21:08:42;;;;;;;;;30.67;30.67;;;;;22.31;32.04;100857.14;246161;1177;58157;-63
2023/12/12 21:13:46;;;;;;;;;29.25;28.00;;;;;22.31;32.20;100868.59;246183;1175;58263;-63
2023/12/12 21:18:49;;;;;;;;;30.00;29.75;;;;;22.31;32.14;100862.67;246169;1181;72675;-62
2023/12/12 21:23:53;;;;;;;;;33.00;31.67;;;;;22.31;32.27;100862.88;246179;1179;73350;-63
2023/12/12 21:28:56;;;;;;;;;33.25;31.75;;;;;22.30;32.28;100866.28;246218;1177;58338;-63
2023/12/12 21:33:59;;;;;;;;;32.33;30.67;;;;;22.30;32.15;100868.80;246163;1179;58296;-63
2023/12/12 21:39:04;;;;;;;;;29.25;28.75;;;;;22.29;32.18;100872.04;246185;1179;58168;-63
2023/12/12 21:44:07;;;;;;;;;27.75;27.50;;;;;22.29;31.92;100873.34;246159;1179;74311;-62
2023/12/12 21:49:12;;;;;;;;;27.75;27.00;;;;;22.28;32.13;100875.11;246166;1175;74353;-63
2023/12/12 21:54:16;;;;;;;;;33.25;30.75;;;;;22.27;32.28;100888.44;246132;1176;73902;-63
2023/12/12 21:59:19;;;;;;;;;31.25;31.25;;;;;22.27;31.97;100891.63;246165;1177;73630;-63
2023/12/12 22:04:22;;;;;;;;;32.75;30.50;;;;;22.26;32.15;100896.23;246188;1176;58350;-62
2023/12/12 22:09:25;;;;;;;;;30.00;29.00;;;;;22.26;32.15;100892.61;246163;1180;58312;-63
2023/12/12 22:14:28;;;;;;;;;32.75;30.00;;;;;22.25;32.09;100893.80;246171;1179;58286;-63
2023/12/12 22:19:31;;;;;;;;;24.00;24.00;;;;;22.24;32.10;100896.15;246171;1177;58215;-63
2023/12/12 22:24:39;;;;;;;;;28.75;28.00;;;;;22.24;32.04;100896.23;246138;1179;71976;-63
2023/12/12 22:29:42;;;;;;;;;33.33;30.67;;;;;22.23;31.95;100899.68;246172;1177;73174;-62
2023/12/12 22:34:45;;;;;;;;;32.00;32.00;;;;;22.23;32.19;100896.20;246183;1179;58269;-63
2023/12/12 22:39:48;;;;;;;;;27.33;27.33;;;;;22.21;32.14;100891.48;246158;1179;58217;-62
2023/12/12 22:44:51;;;;;;;;;31.50;29.75;;;;;22.21;32.28;100882.99;246163;1180;58258;-63